createdAt,value
2023-04-07T00:00:23.361Z,7.45
2023-04-07T00:02:51.756Z,7.46
2023-04-07T00:05:19.774Z,7.35
2023-04-07T00:07:55.746Z,7.50
2023-04-07T00:10:26.821Z,7.39
2023-04-07T00:12:54.561Z,7.45
2023-04-07T00:15:22.387Z,7.46
2023-04-07T00:17:50.486Z,7.47
2023-04-07T00:20:19.082Z,7.42
2023-04-07T00:22:46.915Z,7.41
2023-04-07T00:25:14.652Z,7.48
2023-04-07T00:27:43.669Z,7.39
2023-04-07T00:30:12.131Z,7.43
2023-04-07T00:32:40.062Z,7.40
2023-04-07T00:35:08.604Z,7.34
2023-04-07T00:37:37.484Z,7.33
2023-04-07T00:40:06.524Z,7.29
2023-04-07T00:42:34.711Z,7.31
2023-04-07T00:45:05.085Z,7.26
2023-04-07T00:47:33.234Z,7.28
2023-04-07T00:50:01.331Z,7.27
2023-04-07T00:52:30.088Z,7.17
2023-04-07T00:54:57.865Z,7.20
2023-04-07T00:57:26.373Z,7.24
2023-04-07T00:59:55.039Z,7.22
2023-04-07T01:02:33.425Z,7.33
2023-04-07T01:05:10.741Z,7.19
2023-04-07T01:07:57.054Z,7.19
2023-04-07T01:10:32.916Z,7.23
2023-04-07T01:14:03.742Z,7.24
2023-04-07T01:16:48.212Z,7.26
2023-04-07T01:19:35.045Z,7.27
2023-04-07T01:22:05.452Z,7.30
2023-04-07T01:24:54.312Z,7.24
2023-04-07T01:27:35.300Z,7.17
2023-04-07T01:30:05.545Z,7.27
2023-04-07T01:32:35.480Z,7.21
2023-04-07T01:35:06.231Z,7.16
2023-04-07T01:37:35.506Z,7.13
2023-04-07T01:40:04.644Z,7.16
2023-04-07T01:42:33.715Z,7.21
2023-04-07T01:45:04.477Z,7.10
2023-04-07T01:47:33.712Z,7.04
2023-04-07T01:50:04.609Z,7.09
2023-04-07T01:52:33.313Z,7.11
2023-04-07T01:55:01.642Z,7.06
2023-04-07T01:57:31.292Z,7.03
2023-04-07T02:00:07.661Z,6.99
2023-04-07T02:02:46.564Z,6.95
2023-04-07T02:05:18.091Z,6.95
2023-04-07T02:07:53.592Z,6.92
2023-04-07T02:10:24.832Z,6.85
2023-04-07T02:12:55.195Z,6.88
2023-04-07T02:15:25.547Z,6.84
2023-04-07T02:17:57.324Z,6.81
2023-04-07T02:20:26.176Z,6.79
2023-04-07T02:22:55.877Z,6.69
2023-04-07T02:25:25.825Z,6.72
2023-04-07T02:27:56.488Z,6.69
2023-04-07T02:30:27.429Z,6.67
2023-04-07T02:32:55.437Z,6.66
2023-04-07T02:35:23.884Z,6.66
2023-04-07T02:37:52.354Z,6.68
2023-04-07T02:40:20.105Z,6.69
2023-04-07T02:42:48.294Z,6.67
2023-04-07T02:45:16.097Z,6.62
2023-04-07T02:47:45.828Z,6.55
2023-04-07T02:50:13.604Z,6.54
2023-04-07T02:52:41.968Z,6.48
2023-04-07T02:55:13.568Z,6.39
2023-04-07T02:57:41.829Z,6.44
2023-04-07T03:00:17.445Z,6.43
2023-04-07T03:03:02.630Z,6.36
2023-04-07T03:05:33.863Z,6.37
2023-04-07T03:08:03.202Z,6.41
2023-04-07T03:10:31.164Z,6.42
2023-04-07T03:12:58.881Z,6.43
2023-04-07T03:15:27.180Z,6.43
2023-04-07T03:17:55.144Z,6.44
2023-04-07T03:20:24.990Z,6.40
2023-04-07T03:22:52.687Z,6.34
2023-04-07T03:25:27.398Z,6.23
2023-04-07T03:27:56.116Z,6.10
2023-04-07T03:30:27.524Z,6.10
2023-04-07T03:32:55.321Z,6.11
2023-04-07T03:35:24.766Z,6.08
2023-04-07T03:37:52.754Z,6.07
2023-04-07T03:40:21.879Z,6.14
2023-04-07T03:42:50.151Z,6.10
2023-04-07T03:45:18.584Z,6.08
2023-04-07T03:47:51.706Z,6.16
2023-04-07T03:50:19.691Z,6.17
2023-04-07T03:53:10.570Z,6.16
2023-04-07T03:55:38.772Z,6.19
2023-04-07T03:58:14.939Z,6.26
2023-04-07T04:00:43.968Z,6.31
2023-04-07T04:03:13.527Z,6.36
2023-04-07T04:05:58.274Z,6.39
2023-04-07T04:08:32.096Z,6.40
2023-04-07T04:10:59.865Z,6.45
2023-04-07T04:13:34.823Z,6.46
2023-04-07T04:16:06.146Z,6.52
2023-04-07T04:18:35.422Z,6.62
2023-04-07T04:21:03.471Z,6.63
2023-04-07T04:23:34.824Z,6.61
2023-04-07T04:26:04.946Z,6.64
2023-04-07T04:28:34.440Z,6.69
2023-04-07T04:31:04.085Z,6.69
2023-04-07T04:33:37.514Z,6.71
2023-04-07T04:36:06.057Z,6.73
2023-04-07T04:38:35.631Z,6.72
2023-04-07T04:41:14.302Z,6.72
2023-04-07T04:43:42.571Z,6.74
2023-04-07T04:46:12.688Z,6.72
2023-04-07T04:48:44.557Z,6.66
2023-04-07T04:51:12.490Z,6.64
2023-04-07T04:53:43.688Z,6.65
2023-04-07T04:56:11.563Z,6.65
2023-04-07T04:58:46.281Z,6.69
2023-04-07T05:01:20.392Z,6.72
2023-04-07T05:03:55.025Z,6.74
2023-04-07T05:06:27.593Z,6.80
2023-04-07T05:09:00.890Z,6.81
2023-04-07T05:11:34.074Z,6.80
2023-04-07T05:14:01.791Z,6.85
2023-04-07T05:16:29.918Z,6.85
2023-04-07T05:18:59.158Z,6.88
2023-04-07T05:21:28.377Z,6.87
2023-04-07T05:24:01.399Z,6.90
2023-04-07T05:26:31.194Z,6.93
2023-04-07T05:28:59.732Z,6.92
2023-04-07T05:31:27.461Z,6.94
2023-04-07T05:33:58.523Z,6.96
2023-04-07T05:36:31.458Z,6.96
2023-04-07T05:38:59.200Z,6.99
2023-04-07T05:41:29.419Z,6.99
2023-04-07T05:43:57.819Z,7.00
2023-04-07T05:46:27.388Z,7.02
2023-04-07T05:48:59.201Z,7.06
2023-04-07T05:51:31.459Z,7.10
2023-04-07T05:54:03.770Z,7.09
2023-04-07T05:56:34.033Z,7.14
2023-04-07T05:59:02.304Z,7.18
2023-04-07T06:01:30.498Z,7.15
2023-04-07T06:03:59.695Z,7.15
2023-04-07T06:06:28.690Z,7.20
2023-04-07T06:08:56.480Z,7.22
2023-04-07T06:11:25.662Z,7.26
2023-04-07T06:13:55.502Z,7.33
2023-04-07T06:16:23.176Z,7.37
2023-04-07T06:18:51.606Z,7.39
2023-04-07T06:21:19.374Z,7.41
2023-04-07T06:23:48.056Z,7.46
2023-04-07T06:26:15.965Z,7.46
2023-04-07T06:28:43.884Z,7.52
2023-04-07T06:31:13.169Z,7.59
2023-04-07T06:33:41.123Z,7.68
2023-04-07T06:36:09.218Z,7.71
2023-04-07T06:38:37.194Z,7.79
2023-04-07T06:41:05.456Z,7.81
2023-04-07T06:43:33.440Z,7.86
2023-04-07T06:46:04.281Z,8.02
2023-04-07T06:48:33.699Z,8.00
2023-04-07T06:51:05.344Z,8.03
2023-04-07T06:53:33.366Z,7.98
2023-04-07T06:56:06.253Z,8.02
2023-04-07T06:58:34.329Z,8.02
2023-04-07T07:01:02.710Z,8.07
2023-04-07T07:03:31.587Z,8.12
2023-04-07T07:06:01.064Z,8.17
2023-04-07T07:08:29.763Z,8.16
2023-04-07T07:10:57.893Z,8.24
2023-04-07T07:13:27.205Z,8.38
2023-04-07T07:15:55.540Z,8.65
2023-04-07T07:18:23.529Z,8.90
2023-04-07T07:20:51.658Z,9.13
2023-04-07T07:23:21.227Z,9.45
2023-04-07T07:25:48.949Z,9.98
2023-04-07T07:28:16.665Z,10.38
2023-04-07T07:30:44.349Z,10.26
2023-04-07T07:33:12.140Z,10.25
2023-04-07T07:35:40.540Z,10.19
2023-04-07T07:38:08.927Z,10.18
2023-04-07T07:40:37.928Z,10.26
2023-04-07T07:43:06.191Z,9.85
2023-04-07T07:45:34.362Z,9.99
2023-04-07T07:48:02.513Z,10.11
2023-04-07T07:50:30.943Z,10.00
2023-04-07T07:52:58.817Z,10.09
2023-04-07T07:55:26.580Z,10.17
2023-04-07T07:57:56.514Z,10.12
2023-04-07T08:00:25.049Z,10.24
2023-04-07T08:02:53.168Z,10.41
2023-04-07T08:05:22.264Z,10.43
2023-04-07T08:07:52.705Z,10.45
2023-04-07T08:10:21.785Z,10.59
2023-04-07T08:12:49.689Z,10.62
2023-04-07T08:15:18.788Z,10.46
2023-04-07T08:17:46.493Z,10.67
2023-04-07T08:20:15.277Z,10.54
2023-04-07T08:22:43.679Z,10.30
2023-04-07T08:25:12.231Z,10.16
2023-04-07T08:27:40.258Z,9.96
2023-04-07T08:30:09.342Z,9.84
2023-04-07T08:32:40.595Z,9.81
2023-04-07T08:35:09.142Z,9.74
2023-04-07T08:37:38.360Z,9.80
2023-04-07T08:40:07.189Z,9.74
2023-04-07T08:42:36.890Z,9.80
2023-04-07T08:45:06.366Z,9.87
2023-04-07T08:47:36.455Z,9.73
2023-04-07T08:50:07.977Z,9.65
2023-04-07T08:52:41.197Z,9.74
2023-04-07T08:55:11.041Z,9.77
2023-04-07T08:57:39.155Z,9.81
2023-04-07T09:00:08.123Z,9.86
2023-04-07T09:02:37.542Z,9.82
2023-04-07T09:05:09.219Z,9.82
2023-04-07T09:07:37.872Z,9.73
2023-04-07T09:10:07.379Z,9.70
2023-04-07T09:12:35.836Z,9.74
2023-04-07T09:15:03.858Z,9.69
2023-04-07T09:17:31.807Z,9.63
2023-04-07T09:20:02.012Z,9.66
2023-04-07T09:22:39.057Z,9.66
2023-04-07T09:25:15.016Z,9.57
2023-04-07T09:27:42.961Z,9.58
2023-04-07T09:30:16.022Z,9.62
2023-04-07T09:32:43.778Z,9.71
2023-04-07T09:35:11.588Z,9.77
2023-04-07T09:37:40.611Z,9.77
2023-04-07T09:40:10.294Z,9.79
2023-04-07T09:42:46.251Z,9.97
2023-04-07T09:45:23.816Z,9.85
2023-04-07T09:47:59.234Z,9.81
2023-04-07T09:50:35.195Z,9.86
2023-04-07T09:53:05.147Z,9.84
2023-04-07T09:55:33.859Z,9.82
2023-04-07T09:58:02.634Z,9.73
2023-04-07T10:00:30.715Z,9.73
2023-04-07T10:02:59.946Z,9.82
2023-04-07T10:05:28.933Z,10.01
2023-04-07T10:07:57.258Z,10.03
2023-04-07T10:10:28.907Z,9.96
2023-04-07T10:12:58.361Z,10.04
2023-04-07T10:15:26.628Z,10.07
2023-04-07T10:17:56.858Z,10.13
2023-04-07T10:20:25.367Z,10.07
2023-04-07T10:22:56.946Z,10.17
2023-04-07T10:25:27.164Z,10.03
2023-04-07T10:28:00.776Z,10.09
2023-04-07T10:30:31.663Z,10.22
2023-04-07T10:33:00.353Z,10.39
2023-04-07T10:35:28.567Z,10.54
2023-04-07T10:38:15.111Z,10.71
2023-04-07T10:40:44.622Z,11.10
2023-04-07T10:43:13.667Z,11.28
2023-04-07T10:46:02.339Z,11.43
2023-04-07T10:48:33.142Z,11.36
2023-04-07T10:51:18.880Z,11.39
2023-04-07T10:54:22.535Z,11.54
2023-04-07T10:57:14.826Z,11.47
2023-04-07T11:00:04.589Z,11.26
2023-04-07T11:02:36.585Z,11.10
2023-04-07T11:05:05.515Z,10.96
2023-04-07T11:07:51.221Z,10.79
2023-04-07T11:10:21.973Z,10.69
2023-04-07T11:13:11.477Z,10.62
2023-04-07T11:15:41.050Z,10.49
2023-04-07T11:18:14.904Z,10.36
2023-04-07T11:20:46.078Z,10.47
2023-04-07T11:23:14.879Z,10.60
2023-04-07T11:25:46.022Z,10.40
2023-04-07T11:28:16.808Z,10.26
2023-04-07T11:30:51.683Z,10.32
2023-04-07T11:33:21.076Z,10.17
2023-04-07T11:35:55.740Z,10.40
2023-04-07T11:38:25.720Z,10.16
2023-04-07T11:40:54.617Z,10.15
2023-04-07T11:43:27.162Z,10.03
2023-04-07T11:46:06.342Z,10.02
2023-04-07T11:48:37.525Z,10.08
2023-04-07T11:51:06.748Z,10.02
2023-04-07T11:53:38.596Z,10.03
2023-04-07T11:56:10.843Z,10.16
2023-04-07T11:58:47.935Z,10.10
2023-04-07T12:01:19.541Z,10.26
2023-04-07T12:03:58.920Z,10.51
2023-04-07T12:06:35.243Z,10.70
2023-04-07T12:09:05.221Z,11.06
2023-04-07T12:11:36.025Z,11.43
2023-04-07T12:14:06.853Z,11.63
2023-04-07T12:16:39.554Z,11.60
2023-04-07T12:19:07.908Z,11.55
2023-04-07T12:21:35.792Z,11.19
2023-04-07T12:24:03.628Z,11.15
2023-04-07T12:26:31.957Z,11.15
2023-04-07T12:29:05.017Z,11.04
2023-04-07T12:31:34.674Z,10.95
2023-04-07T12:34:02.392Z,11.08
2023-04-07T12:36:30.194Z,11.28
2023-04-07T12:38:59.100Z,11.21
2023-04-07T12:41:27.686Z,11.15
2023-04-07T12:43:55.465Z,11.14
2023-04-07T12:46:23.259Z,11.19
2023-04-07T12:48:52.614Z,11.13
2023-04-07T12:51:20.517Z,11.09
2023-04-07T12:53:48.453Z,11.20
2023-04-07T12:56:16.293Z,11.03
2023-04-07T12:58:44.104Z,11.30
2023-04-07T13:01:12.037Z,11.13
2023-04-07T13:03:40.069Z,11.12
2023-04-07T13:06:10.857Z,11.27
2023-04-07T13:08:38.856Z,11.13
2023-04-07T13:11:06.660Z,11.16
2023-04-07T13:13:35.010Z,11.43
2023-04-07T13:16:02.801Z,11.36
2023-04-07T13:18:31.214Z,11.33
2023-04-07T13:21:30.631Z,11.47
2023-04-07T13:23:50.498Z,11.67
2023-04-07T13:26:18.723Z,11.59
2023-04-07T13:28:47.792Z,11.68
2023-04-07T13:31:16.330Z,11.97
2023-04-07T13:33:44.300Z,11.73
2023-04-07T13:36:12.030Z,11.49
2023-04-07T13:38:41.987Z,11.66
2023-04-07T13:41:12.252Z,11.57
2023-04-07T13:43:40.230Z,11.45
2023-04-07T13:46:17.083Z,11.37
2023-04-07T13:48:53.115Z,11.44
2023-04-07T13:51:21.374Z,11.32
2023-04-07T13:53:49.797Z,11.13
2023-04-07T13:56:19.354Z,10.90
2023-04-07T13:58:48.038Z,10.85
2023-04-07T14:01:16.087Z,10.75
2023-04-07T14:03:44.156Z,10.74
2023-04-07T14:06:11.965Z,10.71
2023-04-07T14:08:40.035Z,10.82
2023-04-07T14:11:07.740Z,11.16
2023-04-07T14:13:38.229Z,11.14
2023-04-07T14:16:07.974Z,11.19
2023-04-07T14:18:35.812Z,11.37
2023-04-07T14:21:03.595Z,11.43
2023-04-07T14:23:37.124Z,11.51
2023-04-07T14:26:18.965Z,11.23
2023-04-07T14:28:48.657Z,11.20
2023-04-07T14:31:17.955Z,11.11
2023-04-07T14:33:46.691Z,11.34
2023-04-07T14:36:15.721Z,11.12
2023-04-07T14:38:44.331Z,11.21
2023-04-07T14:41:13.020Z,11.30
2023-04-07T14:43:41.388Z,11.43
2023-04-07T14:46:12.284Z,11.59
2023-04-07T14:48:40.118Z,11.46
2023-04-07T14:51:12.796Z,11.35
2023-04-07T14:53:41.804Z,11.56
2023-04-07T14:56:10.662Z,11.42
2023-04-07T14:58:39.116Z,11.43
2023-04-07T15:01:07.468Z,11.32
2023-04-07T15:03:37.089Z,11.26
2023-04-07T15:06:08.359Z,11.38
2023-04-07T15:08:36.057Z,11.50
2023-04-07T15:11:05.624Z,11.79
2023-04-07T15:13:33.381Z,11.78
2023-04-07T15:16:07.553Z,11.61
2023-04-07T15:18:37.140Z,11.56
2023-04-07T15:21:06.005Z,11.55
2023-04-07T15:23:34.529Z,11.65
2023-04-07T15:26:03.012Z,11.61
2023-04-07T15:28:31.186Z,11.85
2023-04-07T15:31:01.050Z,11.53
2023-04-07T15:33:29.246Z,11.53
2023-04-07T15:35:59.901Z,11.49
2023-04-07T15:38:29.659Z,11.43
2023-04-07T15:40:58.723Z,11.39
2023-04-07T15:43:27.155Z,11.42
2023-04-07T15:45:56.197Z,11.24
2023-04-07T15:48:24.226Z,11.27
2023-04-07T15:50:52.374Z,11.24
2023-04-07T15:53:21.899Z,11.34
2023-04-07T15:55:50.735Z,11.33
2023-04-07T15:58:18.784Z,11.48
2023-04-07T16:00:46.964Z,11.57
2023-04-07T16:03:15.757Z,11.61
2023-04-07T16:05:44.092Z,11.41
2023-04-07T16:08:13.878Z,11.25
2023-04-07T16:10:43.239Z,11.58
2023-04-07T16:13:12.214Z,11.69
2023-04-07T16:15:41.661Z,11.46
2023-04-07T16:18:10.982Z,11.65
2023-04-07T16:20:39.650Z,11.50
2023-04-07T16:23:07.359Z,11.44
2023-04-07T16:25:35.237Z,11.23
2023-04-07T16:28:04.479Z,11.20
2023-04-07T16:30:32.308Z,11.22
2023-04-07T16:33:00.563Z,11.04
2023-04-07T16:35:29.134Z,10.85
2023-04-07T16:38:01.456Z,10.77
2023-04-07T16:40:29.206Z,10.60
2023-04-07T16:42:56.913Z,10.64
2023-04-07T16:45:25.991Z,10.49
2023-04-07T16:47:53.994Z,10.42
2023-04-07T16:50:21.910Z,10.47
2023-04-07T16:52:49.698Z,10.56
2023-04-07T16:55:17.469Z,10.40
2023-04-07T16:57:45.312Z,10.47
2023-04-07T17:00:15.032Z,10.30
2023-04-07T17:02:44.165Z,10.27
2023-04-07T17:05:11.997Z,10.18
2023-04-07T17:07:40.637Z,10.19
2023-04-07T17:10:09.497Z,10.31
2023-04-07T17:12:37.208Z,10.33
2023-04-07T17:15:05.481Z,10.55
2023-04-07T17:17:33.319Z,10.58
2023-04-07T17:20:03.370Z,10.45
2023-04-07T17:22:31.149Z,10.54
2023-04-07T17:24:58.786Z,10.37
2023-04-07T17:27:26.496Z,10.21
2023-04-07T17:29:54.658Z,10.12
2023-04-07T17:32:23.074Z,10.06
2023-04-07T17:34:51.098Z,10.02
2023-04-07T17:37:20.715Z,10.05
2023-04-07T17:39:49.293Z,10.02
2023-04-07T17:42:17.266Z,9.97
2023-04-07T17:44:45.510Z,9.85
2023-04-07T17:47:13.428Z,9.72
2023-04-07T17:49:42.275Z,9.54
2023-04-07T17:52:10.200Z,9.50
2023-04-07T17:54:39.424Z,9.52
2023-04-07T17:57:08.330Z,9.34
2023-04-07T17:59:36.325Z,9.27
2023-04-07T18:02:09.033Z,9.21
2023-04-07T18:04:37.856Z,9.15
2023-04-07T18:07:06.344Z,9.09
2023-04-07T18:09:34.731Z,9.09
2023-04-07T18:12:04.008Z,9.03
2023-04-07T18:14:31.941Z,9.07
2023-04-07T18:17:00.509Z,9.08
2023-04-07T18:19:30.002Z,9.03
2023-04-07T18:21:59.804Z,9.07
2023-04-07T18:24:28.172Z,9.04
2023-04-07T18:26:56.937Z,8.97
2023-04-07T18:29:27.218Z,8.92
2023-04-07T18:31:56.027Z,8.85
2023-04-07T18:34:26.024Z,8.84
2023-04-07T18:36:54.001Z,8.84
2023-04-07T18:39:22.123Z,8.79
2023-04-07T18:41:50.894Z,8.73
2023-04-07T18:44:18.695Z,8.76
2023-04-07T18:46:48.439Z,8.69
2023-04-07T18:49:17.347Z,8.68
2023-04-07T18:51:46.961Z,8.62
2023-04-07T18:54:15.393Z,8.57
2023-04-07T18:56:43.418Z,8.55
2023-04-07T18:59:11.370Z,8.53
2023-04-07T19:01:40.324Z,8.55
2023-04-07T19:04:10.058Z,8.56
2023-04-07T19:06:38.207Z,8.65
2023-04-07T19:09:06.312Z,8.66
2023-04-07T19:11:35.726Z,8.66
2023-04-07T19:14:04.789Z,8.77
2023-04-07T19:16:33.062Z,8.79
2023-04-07T19:19:01.229Z,8.80
2023-04-07T19:21:31.024Z,8.81
2023-04-07T19:23:59.784Z,8.80
2023-04-07T19:26:29.530Z,8.78
2023-04-07T19:28:58.112Z,8.75
2023-04-07T19:31:26.389Z,8.74
2023-04-07T19:33:54.450Z,8.73
2023-04-07T19:36:22.294Z,8.71
2023-04-07T19:38:51.797Z,8.70
2023-04-07T19:41:20.187Z,8.72
2023-04-07T19:43:48.187Z,8.75
2023-04-07T19:46:16.897Z,8.76
2023-04-07T19:48:44.740Z,8.79
2023-04-07T19:51:12.856Z,8.81
2023-04-07T19:53:40.710Z,8.79
2023-04-07T19:56:11.098Z,8.79
2023-04-07T19:58:39.249Z,8.81
2023-04-07T20:01:07.629Z,8.82
2023-04-07T20:03:36.704Z,8.78
2023-04-07T20:06:06.540Z,8.69
2023-04-07T20:08:34.312Z,8.64
2023-04-07T20:11:02.523Z,8.63
2023-04-07T20:13:35.028Z,8.57
2023-04-07T20:16:02.912Z,8.55
2023-04-07T20:18:32.142Z,8.55
2023-04-07T20:21:00.854Z,8.56
2023-04-07T20:23:29.245Z,8.58
2023-04-07T20:25:57.306Z,8.59
2023-04-07T20:28:25.461Z,8.57
2023-04-07T20:30:55.275Z,8.61
2023-04-07T20:33:23.339Z,8.56
2023-04-07T20:35:52.524Z,8.53
2023-04-07T20:38:22.291Z,8.45
2023-04-07T20:40:50.198Z,8.46
2023-04-07T20:43:20.728Z,8.44
2023-04-07T20:45:48.955Z,8.41
2023-04-07T20:48:23.845Z,8.55
2023-04-07T20:50:52.028Z,8.69
2023-04-07T20:53:19.903Z,8.83
2023-04-07T20:55:48.307Z,8.60
2023-04-07T20:58:17.696Z,8.44
2023-04-07T21:00:46.006Z,8.35
2023-04-07T21:03:17.345Z,8.23
2023-04-07T21:05:48.232Z,8.06
2023-04-07T21:08:16.172Z,7.97
2023-04-07T21:10:43.991Z,7.94
2023-04-07T21:13:11.892Z,7.87
2023-04-07T21:15:42.223Z,7.82
2023-04-07T21:18:10.680Z,7.73
2023-04-07T21:20:38.793Z,7.69
2023-04-07T21:23:08.717Z,7.73
2023-04-07T21:25:38.127Z,7.76
2023-04-07T21:28:06.293Z,7.74
2023-04-07T21:30:34.243Z,7.73
2023-04-07T21:33:02.621Z,7.74
2023-04-07T21:35:30.920Z,7.81
2023-04-07T21:37:58.866Z,7.71
2023-04-07T21:40:29.666Z,7.78
2023-04-07T21:42:57.615Z,7.77
2023-04-07T21:45:25.695Z,7.80
2023-04-07T21:47:53.828Z,7.85
2023-04-07T21:50:22.285Z,7.87
2023-04-07T21:52:51.443Z,7.90
2023-04-07T21:55:21.207Z,7.91
2023-04-07T21:57:51.551Z,7.85
2023-04-07T22:00:19.671Z,7.84
2023-04-07T22:02:47.795Z,7.80
2023-04-07T22:05:16.042Z,7.83
2023-04-07T22:07:45.342Z,7.82
2023-04-07T22:10:13.227Z,7.82
2023-04-07T22:12:41.085Z,7.89
2023-04-07T22:15:13.067Z,7.81
2023-04-07T22:17:41.640Z,7.78
2023-04-07T22:20:11.438Z,7.77
2023-04-07T22:22:39.470Z,7.75
2023-04-07T22:25:08.300Z,7.73
2023-04-07T22:27:36.317Z,7.80
2023-04-07T22:30:05.905Z,7.82
2023-04-07T22:32:35.398Z,7.87
2023-04-07T22:35:03.329Z,7.94
2023-04-07T22:37:31.324Z,8.02
2023-04-07T22:39:58.975Z,8.12
2023-04-07T22:42:26.643Z,8.14
2023-04-07T22:44:54.386Z,8.14
2023-04-07T22:47:22.658Z,8.13
2023-04-07T22:49:51.939Z,8.13
2023-04-07T22:52:20.159Z,8.11
2023-04-07T22:54:48.119Z,8.13
2023-04-07T22:57:15.940Z,8.17
2023-04-07T22:59:43.583Z,8.21
2023-04-07T23:02:11.598Z,8.19
2023-04-07T23:04:39.326Z,8.20
2023-04-07T23:07:08.918Z,8.23
2023-04-07T23:09:36.674Z,8.25
2023-04-07T23:12:04.408Z,8.22
2023-04-07T23:14:32.337Z,8.22
2023-04-07T23:17:01.107Z,8.23
2023-04-07T23:19:29.199Z,8.20
2023-04-07T23:21:56.913Z,8.28
2023-04-07T23:24:26.328Z,8.29
2023-04-07T23:26:54.688Z,8.27
2023-04-07T23:29:23.490Z,8.28
2023-04-07T23:31:52.873Z,8.27
2023-04-07T23:34:21.728Z,8.24
2023-04-07T23:36:49.381Z,8.25
2023-04-07T23:39:17.126Z,8.24
2023-04-07T23:41:46.213Z,8.22
2023-04-07T23:44:14.764Z,8.21
2023-04-07T23:46:42.702Z,8.19
2023-04-07T23:49:10.700Z,8.18
2023-04-07T23:51:39.415Z,8.16
2023-04-07T23:54:07.313Z,8.14
2023-04-07T23:56:35.091Z,8.09
2023-04-07T23:59:04.346Z,8.12
